Lorenzo, Idaho
Current Conditions -  °F | °C
As of 12:53 AM on Saturday 29 Nov 2014 (Local Time) from KRXE Reporting Station
Broken Clouds Broken Clouds  
Wind Chill: 39°   Ceiling: 12000
Heat Index: 47°   Visibility: 10mi
Dew Point: 15°   Wind: 22mph
Humidity: 28%   Direction: 220°SW
Pressure: 29.59"   Gusts: 30mph
Location:  43.6749°N, 111.89°W
Report Text: KRXE 290753Z AUTO 22019G26KT 10SM BKN120 08/M09 A2959 RMK AO2 PK WND 21032/0712 SLP006 T00831094
Loading
Personal Weather Stations






























Interactive Weather Map New forecast layout! Learn more

10-Day Weather Forecast

Advertisements
Track Severe Weather on mobile